Time;durP1;ratioP1;P1;durP2;ratioP2;P2;SDS_P1;SDS_P2;PMS_P1;PMS_P2;Temp;Humidity;BMP_temperature;BMP_pressure;BME280_temperature;BME280_humidity;BME280_pressure;Samples;Min_cycle;Max_cycle;Signal;HPM_P1;HPM_P2
2022/12/01 00:02:13;;;;;;;;;;;22.30;96.50;;;;;;5065786;28;19988;-73
2022/12/01 00:04:39;;;;;;;;;;;22.30;96.20;;;;;;5068926;28;19913;-73
2022/12/01 00:07:06;;;;;;;;;;;22.30;96.00;;;;;;5050017;28;19923;-73
2022/12/01 00:12:17;;;;;;;;;;;22.30;95.90;;;;;;5064549;28;20149;-74
2022/12/01 00:14:53;;;;;;;;;;;22.30;96.20;;;;;;5069131;28;19965;-72
2022/12/01 00:17:20;;;;;;;;;;;22.20;95.50;;;;;;5068136;28;20064;-72
2022/12/01 00:19:47;;;;;;;;;;;22.10;95.60;;;;;;5063147;28;19927;-72
2022/12/01 00:22:13;;;;;;;;;;;22.00;95.70;;;;;;5065628;28;19920;-73
2022/12/01 00:24:40;;;;;;;;;;;22.00;95.40;;;;;;5069522;28;19993;-71
2022/12/01 00:27:07;;;;;;;;;;;22.00;95.40;;;;;;5060042;28;19916;-74
2022/12/01 00:29:33;;;;;;;;;;;22.00;95.50;;;;;;5062306;28;19920;-73
2022/12/01 00:32:00;;;;;;;;;;;21.90;95.70;;;;;;5064137;28;19959;-72
2022/12/01 00:34:27;;;;;;;;;;;21.90;95.90;;;;;;5065313;28;19920;-72
2022/12/01 00:36:54;;;;;;;;;;;21.90;95.70;;;;;;5051567;28;20383;-74
2022/12/01 00:39:21;;;;;;;;;;;21.90;95.80;;;;;;5060006;28;19982;-73
2022/12/01 00:41:47;;;;;;;;;;;21.90;95.50;;;;;;5066373;28;20499;-74
2022/12/01 00:44:14;;;;;;;;;;;22.00;95.30;;;;;;5062917;28;19912;-74
2022/12/01 00:46:41;;;;;;;;;;;21.90;95.30;;;;;;5066335;28;19919;-70
2022/12/01 00:49:10;;;;;;;;;;;22.00;95.70;;;;;;5069860;28;20011;-73
2022/12/01 00:51:37;;;;;;;;;;;21.90;95.10;;;;;;5067994;28;20356;-71
2022/12/01 00:54:04;;;;;;;;;;;21.90;95.00;;;;;;5067326;28;20368;-75
2022/12/01 00:56:30;;;;;;;;;;;21.90;94.90;;;;;;5048287;28;20061;-71
2022/12/01 00:58:57;;;;;;;;;;;21.80;94.80;;;;;;5062919;28;20290;-74
2022/12/01 01:01:24;;;;;;;;;;;21.60;95.10;;;;;;5066039;28;19916;-71
2022/12/01 01:03:50;;;;;;;;;;;21.50;95.20;;;;;;5068507;28;19920;-71
2022/12/01 01:06:17;;;;;;;;;;;21.40;95.50;;;;;;5070733;28;19909;-72
2022/12/01 01:08:44;;;;;;;;;;;21.40;95.70;;;;;;5068345;28;20003;-71
2022/12/01 01:11:11;;;;;;;;;;;21.40;95.90;;;;;;5069227;28;19985;-70
2022/12/01 01:13:37;;;;;;;;;;;21.40;96.20;;;;;;5061592;28;19916;-76
2022/12/01 01:16:06;;;;;;;;;;;21.40;96.00;;;;;;5066054;28;19963;-70
2022/12/01 01:18:33;;;;;;;;;;;21.40;96.30;;;;;;5061372;28;19954;-72
2022/12/01 01:21:01;;;;;;;;;;;21.30;96.40;;;;;;5065599;28;20058;-70
2022/12/01 01:23:28;;;;;;;;;;;21.30;96.80;;;;;;5073736;28;19912;-71
2022/12/01 01:26:06;;;;;;;;;;;21.30;96.80;;;;;;5067061;28;19966;-73
2022/12/01 01:28:33;;;;;;;;;;;21.20;97.10;;;;;;5068268;28;19912;-73
2022/12/01 01:31:04;;;;;;;;;;;21.20;97.20;;;;;;5074986;28;19926;-71
2022/12/01 01:33:30;;;;;;;;;;;21.10;97.50;;;;;;5077444;28;19948;-72
2022/12/01 01:36:00;;;;;;;;;;;21.10;97.20;;;;;;5074011;28;19966;-72
2022/12/01 01:38:27;;;;;;;;;;;21.10;97.10;;;;;;5070271;28;19920;-72
2022/12/01 01:40:54;;;;;;;;;;;21.00;97.20;;;;;;5068572;28;19934;-72
2022/12/01 01:43:39;;;;;;;;;;;21.00;97.30;;;;;;5070818;28;19942;-70
2022/12/01 01:46:06;;;;;;;;;;;21.00;97.40;;;;;;5064393;28;19924;-70
2022/12/01 01:48:35;;;;;;;;;;;20.90;97.90;;;;;;5062478;28;20275;-70
2022/12/01 01:51:02;;;;;;;;;;;20.80;97.90;;;;;;5060537;28;19917;-72
2022/12/01 01:53:30;;;;;;;;;;;20.90;97.80;;;;;;5063100;28;19920;-71
2022/12/01 01:55:57;;;;;;;;;;;21.00;97.70;;;;;;5064576;28;19942;-72
2022/12/01 01:58:24;;;;;;;;;;;21.10;97.60;;;;;;5067232;28;19928;-71
2022/12/01 02:00:50;;;;;;;;;;;21.10;97.30;;;;;;5069005;28;19913;-70
2022/12/01 02:03:18;;;;;;;;;;;21.30;96.90;;;;;;5069943;28;19913;-70
2022/12/01 02:05:45;;;;;;;;;;;21.50;96.80;;;;;;5068857;28;19919;-72
2022/12/01 02:08:12;;;;;;;;;;;21.60;96.50;;;;;;5060751;28;20411;-70
2022/12/01 02:10:42;;;;;;;;;;;21.80;96.30;;;;;;5063328;28;20010;-72
2022/12/01 02:13:19;;;;;;;;;;;22.00;96.20;;;;;;5061352;28;19933;-75
2022/12/01 02:15:55;;;;;;;;;;;22.10;96.30;;;;;;5062196;28;21659;-76
2022/12/01 02:18:25;;;;;;;;;;;22.20;96.50;;;;;;5061001;28;20367;-72
2022/12/01 02:21:10;;;;;;;;;;;22.30;95.90;;;;;;5061891;28;19963;-72
2022/12/01 02:23:46;;;;;;;;;;;22.30;95.90;;;;;;5062412;28;19974;-69
2022/12/01 02:26:21;;;;;;;;;;;22.30;95.60;;;;;;5062043;28;19920;-72
2022/12/01 02:28:55;;;;;;;;;;;22.40;95.50;;;;;;5068000;28;19935;-71
2022/12/01 02:31:22;;;;;;;;;;;22.60;95.30;;;;;;5067064;28;19943;-72
2022/12/01 02:33:54;;;;;;;;;;;22.90;95.10;;;;;;5071184;28;19921;-72
2022/12/01 02:36:30;;;;;;;;;;;23.10;94.70;;;;;;5074827;28;19943;-73
2022/12/01 02:39:09;;;;;;;;;;;23.30;94.60;;;;;;5073667;28;19927;-70
2022/12/01 02:41:38;;;;;;;;;;;23.50;94.10;;;;;;5069259;28;19999;-70
2022/12/01 02:44:13;;;;;;;;;;;23.80;93.90;;;;;;5065048;28;20027;-73
2022/12/01 02:46:51;;;;;;;;;;;24.20;93.80;;;;;;5049896;28;20006;-73
2022/12/01 02:49:26;;;;;;;;;;;24.80;93.10;;;;;;5062512;28;19917;-72
2022/12/01 02:51:54;;;;;;;;;;;24.90;92.80;;;;;;5066189;28;20390;-74
2022/12/01 02:54:21;;;;;;;;;;;24.80;92.60;;;;;;5063039;28;21202;-75
2022/12/01 02:56:51;;;;;;;;;;;24.90;92.30;;;;;;5063233;28;19916;-74
2022/12/01 02:59:18;;;;;;;;;;;25.20;91.90;;;;;;5060446;28;19928;-71
2022/12/01 03:01:54;;;;;;;;;;;25.20;91.80;;;;;;5065004;28;20034;-70
2022/12/01 03:04:21;;;;;;;;;;;25.20;91.60;;;;;;5064095;28;19921;-74
2022/12/01 03:06:56;;;;;;;;;;;25.30;91.40;;;;;;5061637;28;20061;-74
2022/12/01 03:09:29;;;;;;;;;;;25.20;91.30;;;;;;5066231;28;20002;-69
2022/12/01 03:12:14;;;;;;;;;;;25.00;91.40;;;;;;5067902;28;20017;-70
2022/12/01 03:15:00;;;;;;;;;;;24.70;91.30;;;;;;5067717;28;19913;-71
2022/12/01 03:17:28;;;;;;;;;;;24.60;91.60;;;;;;5064433;28;19920;-72
2022/12/01 03:19:58;;;;;;;;;;;24.40;92.00;;;;;;5065816;28;19909;-70
2022/12/01 03:22:37;;;;;;;;;;;24.10;92.10;;;;;;5069315;28;19916;-70
2022/12/01 03:25:04;;;;;;;;;;;24.00;92.40;;;;;;5066032;28;19943;-71
2022/12/01 03:27:32;;;;;;;;;;;23.70;92.40;;;;;;5071364;28;20359;-70
2022/12/01 03:30:00;;;;;;;;;;;23.60;92.50;;;;;;5070557;28;20883;-73
2022/12/01 03:32:37;;;;;;;;;;;23.50;93.00;;;;;;5069545;28;19913;-71
2022/12/01 03:35:21;;;;;;;;;;;23.50;92.90;;;;;;5068319;28;19920;-74
2022/12/01 03:37:55;;;;;;;;;;;23.40;92.70;;;;;;5067261;28;20011;-70
2022/12/01 03:40:26;;;;;;;;;;;23.30;92.90;;;;;;5069982;28;19915;-71
2022/12/01 03:42:55;;;;;;;;;;;23.30;93.10;;;;;;5069048;28;20393;-69
2022/12/01 03:45:26;;;;;;;;;;;23.30;93.10;;;;;;5068260;28;19962;-72
2022/12/01 03:47:53;;;;;;;;;;;23.40;92.90;;;;;;5069723;28;19920;-70
2022/12/01 03:50:19;;;;;;;;;;;23.50;93.00;;;;;;5069158;28;19920;-72
2022/12/01 03:52:58;;;;;;;;;;;23.50;92.90;;;;;;5070886;28;19917;-71
2022/12/01 03:55:27;;;;;;;;;;;23.60;93.00;;;;;;5069492;28;20468;-71
2022/12/01 03:57:57;;;;;;;;;;;23.70;92.80;;;;;;5070484;28;19928;-71
2022/12/01 04:00:24;;;;;;;;;;;23.70;92.50;;;;;;5060979;28;19963;-72
2022/12/01 04:02:57;;;;;;;;;;;23.80;92.40;;;;;;5062918;28;19912;-70
2022/12/01 04:05:25;;;;;;;;;;;23.90;92.30;;;;;;5061571;28;19951;-71
2022/12/01 04:07:52;;;;;;;;;;;24.00;92.10;;;;;;5058443;28;19979;-71
2022/12/01 04:10:19;;;;;;;;;;;24.10;91.90;;;;;;5064726;28;19924;-69
2022/12/01 04:12:45;;;;;;;;;;;24.40;91.80;;;;;;5063455;28;19969;-70
2022/12/01 04:15:13;;;;;;;;;;;24.70;91.60;;;;;;5063553;28;19913;-73
2022/12/01 04:17:43;;;;;;;;;;;25.00;91.10;;;;;;5062608;28;19920;-72
2022/12/01 04:20:12;;;;;;;;;;;25.20;90.90;;;;;;5064990;28;19947;-73
2022/12/01 04:22:39;;;;;;;;;;;25.40;90.80;;;;;;5066413;28;20345;-72
2022/12/01 04:25:07;;;;;;;;;;;25.50;90.90;;;;;;5066054;28;19924;-72
2022/12/01 04:27:34;;;;;;;;;;;25.70;90.20;;;;;;5065162;28;19913;-72
2022/12/01 04:30:01;;;;;;;;;;;25.70;90.00;;;;;;5067645;28;19916;-72
2022/12/01 04:32:28;;;;;;;;;;;25.60;89.80;;;;;;5064617;28;19913;-70
2022/12/01 04:34:55;;;;;;;;;;;25.40;90.10;;;;;;5071289;28;19966;-72
2022/12/01 04:37:22;;;;;;;;;;;25.30;90.30;;;;;;5067337;28;19924;-71
2022/12/01 04:39:48;;;;;;;;;;;25.20;90.20;;;;;;5053924;28;19916;-72
2022/12/01 04:42:16;;;;;;;;;;;25.00;90.20;;;;;;5065013;28;20251;-72
2022/12/01 04:44:43;;;;;;;;;;;24.70;90.30;;;;;;5065246;28;19978;-73
2022/12/01 04:47:10;;;;;;;;;;;24.50;90.40;;;;;;5061117;28;20356;-71
2022/12/01 04:49:36;;;;;;;;;;;24.60;91.00;;;;;;5065228;28;19912;-72
2022/12/01 04:52:03;;;;;;;;;;;24.50;90.40;;;;;;5067588;28;20029;-71
2022/12/01 04:54:30;;;;;;;;;;;24.10;90.80;;;;;;5071497;28;19917;-71
2022/12/01 04:56:56;;;;;;;;;;;24.10;91.00;;;;;;5061478;28;19935;-70
2022/12/01 04:59:23;;;;;;;;;;;24.10;91.20;;;;;;5061887;28;19963;-72
2022/12/01 05:01:50;;;;;;;;;;;24.20;91.20;;;;;;5062681;28;20018;-72
2022/12/01 05:04:17;;;;;;;;;;;24.20;91.00;;;;;;5066721;28;19912;-72
2022/12/01 05:06:43;;;;;;;;;;;24.30;90.80;;;;;;5067879;28;19917;-71
2022/12/01 05:09:12;;;;;;;;;;;24.60;90.30;;;;;;5065765;28;19920;-71
2022/12/01 05:11:39;;;;;;;;;;;24.70;90.20;;;;;;5073258;28;20100;-73
2022/12/01 05:14:06;;;;;;;;;;;24.80;90.00;;;;;;5053377;28;19912;-73
2022/12/01 05:16:33;;;;;;;;;;;24.70;89.90;;;;;;5061618;28;19982;-71
2022/12/01 05:21:50;;;;;;;;;;;24.40;90.40;;;;;;5064858;28;20309;-72
2022/12/01 05:24:17;;;;;;;;;;;24.40;90.30;;;;;;5069302;28;19977;-72
2022/12/01 05:26:44;;;;;;;;;;;24.40;90.40;;;;;;5070833;28;19916;-72
2022/12/01 05:29:11;;;;;;;;;;;24.30;90.60;;;;;;5072204;28;20031;-73
2022/12/01 05:31:38;;;;;;;;;;;24.10;90.90;;;;;;5069443;28;20413;-73
2022/12/01 05:34:06;;;;;;;;;;;23.80;91.00;;;;;;5065365;28;20360;-73
2022/12/01 05:36:32;;;;;;;;;;;23.70;91.30;;;;;;5067113;28;19920;-72
2022/12/01 05:38:59;;;;;;;;;;;23.60;91.30;;;;;;5063596;28;20406;-75
2022/12/01 05:41:26;;;;;;;;;;;23.50;91.60;;;;;;5067011;28;19920;-73
2022/12/01 05:43:52;;;;;;;;;;;23.50;91.60;;;;;;5069589;28;20412;-74
2022/12/01 05:46:19;;;;;;;;;;;23.50;91.80;;;;;;5064153;28;19921;-75
2022/12/01 05:48:46;;;;;;;;;;;23.50;91.70;;;;;;5072518;28;20011;-73
2022/12/01 05:51:14;;;;;;;;;;;23.50;91.70;;;;;;5069560;28;20047;-75
2022/12/01 05:53:45;;;;;;;;;;;23.50;91.40;;;;;;5070052;28;19920;-75
2022/12/01 05:56:12;;;;;;;;;;;23.40;91.90;;;;;;5058583;28;19948;-71
2022/12/01 05:58:39;;;;;;;;;;;23.30;91.40;;;;;;5073202;28;19926;-72
2022/12/01 06:01:05;;;;;;;;;;;23.20;91.70;;;;;;5062367;28;20007;-73
2022/12/01 06:03:32;;;;;;;;;;;23.10;91.90;;;;;;5071765;28;19962;-73
2022/12/01 06:05:59;;;;;;;;;;;23.10;91.90;;;;;;5070885;28;19964;-72
2022/12/01 06:08:26;;;;;;;;;;;23.10;91.60;;;;;;5061953;28;20203;-74
2022/12/01 06:10:53;;;;;;;;;;;23.10;91.70;;;;;;5045500;28;20401;-71
2022/12/01 06:13:20;;;;;;;;;;;23.10;91.50;;;;;;5061043;28;19994;-73
2022/12/01 06:15:54;;;;;;;;;;;23.10;91.50;;;;;;5066257;28;19913;-70
2022/12/01 06:18:21;;;;;;;;;;;23.10;91.70;;;;;;5062548;28;19971;-72
2022/12/01 06:20:48;;;;;;;;;;;23.20;91.70;;;;;;5067738;28;19912;-71
2022/12/01 06:23:14;;;;;;;;;;;23.20;91.50;;;;;;5069696;28;19948;-74
2022/12/01 06:25:41;;;;;;;;;;;23.10;91.50;;;;;;5060386;28;19962;-73
2022/12/01 06:28:08;;;;;;;;;;;23.00;91.60;;;;;;5070512;28;20019;-73
2022/12/01 06:30:34;;;;;;;;;;;23.00;91.60;;;;;;5067600;28;19912;-74
2022/12/01 06:33:01;;;;;;;;;;;22.90;91.50;;;;;;5071714;28;20646;-74
2022/12/01 06:35:28;;;;;;;;;;;22.90;91.20;;;;;;5070483;28;19967;-74
2022/12/01 06:37:54;;;;;;;;;;;22.90;91.50;;;;;;5040668;28;20011;-72
2022/12/01 06:40:21;;;;;;;;;;;22.90;91.40;;;;;;5068810;28;20003;-70
2022/12/01 06:42:48;;;;;;;;;;;22.90;91.30;;;;;;5070866;28;20603;-74
2022/12/01 06:45:14;;;;;;;;;;;22.90;91.20;;;;;;5070718;28;19912;-72
2022/12/01 06:47:41;;;;;;;;;;;22.90;91.20;;;;;;5069506;28;20371;-77
2022/12/01 06:50:09;;;;;;;;;;;22.80;91.10;;;;;;5071233;28;20286;-78
2022/12/01 06:52:36;;;;;;;;;;;22.90;91.10;;;;;;5051838;28;19912;-74
2022/12/01 06:55:03;;;;;;;;;;;22.90;90.60;;;;;;5070823;28;19958;-76
2022/12/01 06:57:30;;;;;;;;;;;22.90;90.60;;;;;;5063781;28;20492;-74
2022/12/01 06:59:56;;;;;;;;;;;22.90;90.40;;;;;;5058199;28;19965;-73
2022/12/01 07:02:23;;;;;;;;;;;22.70;90.30;;;;;;5070473;28;19920;-73
2022/12/01 07:04:49;;;;;;;;;;;22.60;90.20;;;;;;5061310;28;19939;-74
2022/12/01 07:07:16;;;;;;;;;;;22.50;90.40;;;;;;5065993;28;19912;-72
2022/12/01 07:09:43;;;;;;;;;;;22.30;90.40;;;;;;5062760;28;19919;-75
2022/12/01 07:12:10;;;;;;;;;;;22.30;90.50;;;;;;5064127;28;19924;-70
2022/12/01 07:14:36;;;;;;;;;;;22.20;90.50;;;;;;5064210;28;19916;-73
2022/12/01 07:17:03;;;;;;;;;;;22.20;90.70;;;;;;5062890;28;19920;-73
2022/12/01 07:19:30;;;;;;;;;;;22.20;90.70;;;;;;5057567;28;19917;-73
2022/12/01 07:21:56;;;;;;;;;;;22.20;90.70;;;;;;5070221;28;19999;-72
2022/12/01 07:24:23;;;;;;;;;;;22.20;90.90;;;;;;5065660;28;19913;-70
2022/12/01 07:26:50;;;;;;;;;;;22.20;90.70;;;;;;5068439;28;19923;-73
2022/12/01 07:29:17;;;;;;;;;;;22.20;91.20;;;;;;5069392;28;19916;-75
2022/12/01 07:31:43;;;;;;;;;;;22.20;91.10;;;;;;5065699;28;19978;-73
2022/12/01 07:34:11;;;;;;;;;;;22.20;91.10;;;;;;5064989;28;20364;-73
2022/12/01 07:36:38;;;;;;;;;;;22.10;90.90;;;;;;5065630;28;19919;-74
2022/12/01 07:39:06;;;;;;;;;;;22.00;90.90;;;;;;5068199;28;20023;-74
2022/12/01 07:41:33;;;;;;;;;;;22.00;91.10;;;;;;5066753;28;19958;-73
2022/12/01 07:44:00;;;;;;;;;;;21.90;91.20;;;;;;5068683;28;19928;-74
2022/12/01 07:46:27;;;;;;;;;;;21.80;91.30;;;;;;5068971;28;19916;-69
2022/12/01 07:48:55;;;;;;;;;;;21.80;91.10;;;;;;5069282;28;19979;-72
2022/12/01 07:51:22;;;;;;;;;;;21.90;91.20;;;;;;5065483;28;19908;-69
2022/12/01 07:53:50;;;;;;;;;;;21.80;91.20;;;;;;5062877;28;19919;-72
2022/12/01 07:56:17;;;;;;;;;;;21.70;91.30;;;;;;5069415;28;19916;-72
2022/12/01 07:58:44;;;;;;;;;;;21.60;91.20;;;;;;5067407;28;19932;-72
2022/12/01 08:01:19;;;;;;;;;;;21.50;91.00;;;;;;5068909;28;20003;-73
2022/12/01 08:03:47;;;;;;;;;;;21.40;91.10;;;;;;5064244;28;20010;-72
2022/12/01 08:06:14;;;;;;;;;;;21.40;91.10;;;;;;5066491;28;19917;-71
2022/12/01 08:08:41;;;;;;;;;;;21.40;91.20;;;;;;5067440;28;20363;-71
2022/12/01 08:11:12;;;;;;;;;;;21.30;91.30;;;;;;5066768;28;19923;-70
2022/12/01 08:13:40;;;;;;;;;;;21.30;91.50;;;;;;5072488;28;19921;-72
2022/12/01 08:16:11;;;;;;;;;;;21.20;91.60;;;;;;5065863;28;19927;-74
2022/12/01 08:18:39;;;;;;;;;;;21.10;91.80;;;;;;5069964;28;20389;-72
2022/12/01 08:21:06;;;;;;;;;;;21.00;92.20;;;;;;5070359;28;19916;-73
2022/12/01 08:23:33;;;;;;;;;;;20.90;91.90;;;;;;5061312;28;20003;-73
2022/12/01 08:26:04;;;;;;;;;;;20.90;92.00;;;;;;5073059;28;19916;-73
2022/12/01 08:28:31;;;;;;;;;;;20.80;92.10;;;;;;5067421;28;20003;-72
2022/12/01 08:30:57;;;;;;;;;;;20.70;92.20;;;;;;5067276;28;19913;-73
2022/12/01 08:33:24;;;;;;;;;;;20.60;92.40;;;;;;5066755;28;20651;-70
2022/12/01 08:35:51;;;;;;;;;;;20.60;92.60;;;;;;5069405;28;19924;-73
2022/12/01 08:38:18;;;;;;;;;;;20.60;92.70;;;;;;5073240;28;19920;-73
2022/12/01 08:40:44;;;;;;;;;;;20.50;92.90;;;;;;5062152;28;19912;-72
2022/12/01 08:43:11;;;;;;;;;;;20.50;93.00;;;;;;5062178;28;19966;-72
2022/12/01 08:45:38;;;;;;;;;;;20.40;93.20;;;;;;5066930;28;19966;-72
2022/12/01 08:48:05;;;;;;;;;;;20.30;93.30;;;;;;5072947;28;19935;-72
2022/12/01 08:50:31;;;;;;;;;;;20.30;93.50;;;;;;5074143;28;19916;-72
2022/12/01 08:52:58;;;;;;;;;;;20.20;93.60;;;;;;5073629;28;19912;-75
2022/12/01 08:55:25;;;;;;;;;;;20.10;93.70;;;;;;5071304;28;19919;-75
2022/12/01 08:57:51;;;;;;;;;;;20.00;93.90;;;;;;5081249;28;20268;-73
2022/12/01 09:00:18;;;;;;;;;;;19.90;94.00;;;;;;5076520;28;19942;-72
2022/12/01 09:02:45;;;;;;;;;;;19.90;94.10;;;;;;5071335;28;20355;-71
2022/12/01 09:05:11;;;;;;;;;;;19.90;94.40;;;;;;5070649;28;19916;-72
2022/12/01 09:07:39;;;;;;;;;;;19.90;94.50;;;;;;5072720;28;19960;-73
2022/12/01 09:10:06;;;;;;;;;;;19.90;94.70;;;;;;5070464;28;20592;-73
2022/12/01 09:12:33;;;;;;;;;;;19.80;94.90;;;;;;5070920;28;19924;-74
2022/12/01 09:15:00;;;;;;;;;;;19.80;95.10;;;;;;5069834;28;19920;-73
2022/12/01 09:17:27;;;;;;;;;;;19.80;95.30;;;;;;5072333;28;20385;-71
2022/12/01 09:19:54;;;;;;;;;;;19.70;95.50;;;;;;5070682;28;20345;-72
2022/12/01 09:22:21;;;;;;;;;;;19.70;95.70;;;;;;5072824;28;19934;-74
2022/12/01 09:24:47;;;;;;;;;;;19.70;95.90;;;;;;5070580;28;20324;-72
2022/12/01 09:27:14;;;;;;;;;;;19.70;96.30;;;;;;5068192;28;19913;-75
2022/12/01 09:29:41;;;;;;;;;;;19.70;96.40;;;;;;5070612;28;20003;-73
2022/12/01 09:32:07;;;;;;;;;;;19.70;96.50;;;;;;5073615;28;19908;-74
2022/12/01 09:34:34;;;;;;;;;;;19.70;96.50;;;;;;5068987;28;19952;-75
2022/12/01 09:37:01;;;;;;;;;;;19.70;96.60;;;;;;5070595;28;19965;-73
2022/12/01 09:39:28;;;;;;;;;;;19.70;96.80;;;;;;5065926;28;20005;-72
2022/12/01 09:42:11;;;;;;;;;;;19.70;96.80;;;;;;5062654;28;20410;-76
2022/12/01 09:44:38;;;;;;;;;;;19.60;97.00;;;;;;5035911;28;19923;-73
2022/12/01 09:47:17;;;;;;;;;;;19.50;97.40;;;;;;5059670;28;19944;-72
2022/12/01 09:49:50;;;;;;;;;;;19.50;97.20;;;;;;5066968;28;19916;-75
2022/12/01 09:52:18;;;;;;;;;;;19.40;97.30;;;;;;5070009;28;19912;-73
2022/12/01 09:54:46;;;;;;;;;;;19.50;97.40;;;;;;5068871;28;19920;-74
2022/12/01 09:57:30;;;;;;;;;;;19.50;97.40;;;;;;5067579;28;19913;-76
2022/12/01 09:59:58;;;;;;;;;;;19.40;97.70;;;;;;5067532;28;20264;-72
2022/12/01 10:02:42;;;;;;;;;;;19.40;97.80;;;;;;5076146;28;20011;-72
2022/12/01 10:05:12;;;;;;;;;;;19.30;97.80;;;;;;5069319;28;19928;-73
2022/12/01 10:07:43;;;;;;;;;;;19.30;97.90;;;;;;5060835;28;20343;-74
2022/12/01 10:10:14;;;;;;;;;;;19.10;98.10;;;;;;5070126;28;19920;-74
2022/12/01 10:12:41;;;;;;;;;;;19.00;98.60;;;;;;5067923;28;19924;-75
2022/12/01 10:15:25;;;;;;;;;;;18.80;99.00;;;;;;5063784;28;19912;-75
2022/12/01 10:18:17;;;;;;;;;;;18.60;99.40;;;;;;5069039;28;19921;-75
2022/12/01 10:21:02;;;;;;;;;;;18.40;99.70;;;;;;5040240;28;19912;-75
2022/12/01 10:23:40;;;;;;;;;;;18.30;99.90;;;;;;5070044;28;19912;-74
2022/12/01 10:26:15;;;;;;;;;;;18.30;99.90;;;;;;5067811;28;19923;-74
2022/12/01 10:29:00;;;;;;;;;;;18.20;99.90;;;;;;5067133;28;19923;-77
2022/12/01 10:31:44;;;;;;;;;;;18.10;99.90;;;;;;5059633;28;20291;-72
2022/12/01 10:34:16;;;;;;;;;;;18.00;99.90;;;;;;5066440;28;19958;-72
2022/12/01 10:36:43;;;;;;;;;;;17.90;99.90;;;;;;5069138;28;19920;-72
2022/12/01 10:39:15;;;;;;;;;;;17.90;99.90;;;;;;5069154;28;19931;-76
2022/12/01 10:41:42;;;;;;;;;;;17.80;99.90;;;;;;5071378;28;20417;-74
2022/12/01 10:44:08;;;;;;;;;;;17.70;99.90;;;;;;5071789;28;19927;-76
2022/12/01 10:46:41;;;;;;;;;;;17.60;99.90;;;;;;5068904;28;19920;-73
2022/12/01 10:49:09;;;;;;;;;;;17.60;99.90;;;;;;5071561;28;19970;-75
2022/12/01 10:51:47;;;;;;;;;;;17.50;99.90;;;;;;5053521;28;19913;-74
2022/12/01 10:54:13;;;;;;;;;;;17.50;99.90;;;;;;5060155;28;19916;-71
2022/12/01 10:56:42;;;;;;;;;;;17.40;99.90;;;;;;5068544;28;19916;-74
2022/12/01 10:59:21;;;;;;;;;;;17.40;99.90;;;;;;5071520;28;19963;-76
2022/12/01 11:01:48;;;;;;;;;;;17.30;99.90;;;;;;5069113;28;19928;-73
2022/12/01 11:04:32;;;;;;;;;;;17.30;99.90;;;;;;5071946;28;19919;-74
2022/12/01 11:07:00;;;;;;;;;;;17.20;99.90;;;;;;5073377;28;19917;-73
2022/12/01 11:09:27;;;;;;;;;;;17.20;99.90;;;;;;5069358;28;19913;-74
2022/12/01 11:12:01;;;;;;;;;;;17.10;99.90;;;;;;5067057;28;20021;-72
2022/12/01 11:14:40;;;;;;;;;;;17.00;99.90;;;;;;5068839;28;20487;-73
2022/12/01 11:17:15;;;;;;;;;;;17.00;99.90;;;;;;5068296;28;19916;-77
2022/12/01 11:19:41;;;;;;;;;;;16.90;99.90;;;;;;5060179;28;19925;-73
2022/12/01 11:22:19;;;;;;;;;;;16.90;99.90;;;;;;5077305;28;19913;-74
2022/12/01 11:24:52;;;;;;;;;;;16.80;99.90;;;;;;5068751;28;19909;-74
2022/12/01 11:27:18;;;;;;;;;;;16.80;99.90;;;;;;5060860;28;20621;-73
2022/12/01 11:29:47;;;;;;;;;;;16.80;99.90;;;;;;5064336;28;19917;-72
2022/12/01 11:32:16;;;;;;;;;;;16.70;99.90;;;;;;5069523;28;20282;-74
2022/12/01 11:34:47;;;;;;;;;;;16.70;99.90;;;;;;5067434;28;20362;-72
2022/12/01 11:37:18;;;;;;;;;;;16.70;99.90;;;;;;5066315;28;19909;-73
2022/12/01 11:39:46;;;;;;;;;;;16.60;99.90;;;;;;5070055;28;20271;-72
2022/12/01 11:42:13;;;;;;;;;;;16.60;99.90;;;;;;5069947;28;19995;-71
2022/12/01 11:44:49;;;;;;;;;;;16.60;99.90;;;;;;5058399;28;19970;-73
2022/12/01 11:47:17;;;;;;;;;;;16.60;99.90;;;;;;5065356;28;19924;-73
2022/12/01 11:49:51;;;;;;;;;;;16.50;99.90;;;;;;5073838;28;20273;-72
2022/12/01 11:52:31;;;;;;;;;;;16.50;99.90;;;;;;5054201;28;19913;-71
2022/12/01 11:54:58;;;;;;;;;;;16.50;99.90;;;;;;5073468;28;20328;-72
2022/12/01 11:57:25;;;;;;;;;;;16.40;99.90;;;;;;5073203;28;19916;-73
2022/12/01 11:59:52;;;;;;;;;;;16.40;99.90;;;;;;5071163;28;20565;-73
2022/12/01 12:02:19;;;;;;;;;;;16.40;99.90;;;;;;5066894;28;19920;-72
2022/12/01 12:04:54;;;;;;;;;;;16.30;99.90;;;;;;5061309;28;19990;-72
2022/12/01 12:07:24;;;;;;;;;;;16.30;99.90;;;;;;5073158;28;19913;-74
2022/12/01 12:10:03;;;;;;;;;;;16.30;99.90;;;;;;5067042;28;20003;-73
2022/12/01 12:12:48;;;;;;;;;;;16.30;99.90;;;;;;5072788;28;19928;-74
2022/12/01 12:15:27;;;;;;;;;;;16.30;99.90;;;;;;5069666;28;19934;-75
2022/12/01 12:18:02;;;;;;;;;;;16.20;99.90;;;;;;5066772;28;19920;-72
2022/12/01 12:20:47;;;;;;;;;;;16.20;99.90;;;;;;5068507;28;19948;-72
2022/12/01 12:23:15;;;;;;;;;;;16.10;99.90;;;;;;5068836;28;19919;-75
2022/12/01 12:25:55;;;;;;;;;;;16.20;99.90;;;;;;5070441;28;19939;-75
2022/12/01 12:28:22;;;;;;;;;;;16.10;99.90;;;;;;5040276;28;19908;-72
2022/12/01 12:31:01;;;;;;;;;;;16.10;99.90;;;;;;5074847;28;19912;-75
2022/12/01 12:33:33;;;;;;;;;;;16.10;99.90;;;;;;5078056;28;19920;-70
2022/12/01 12:36:00;;;;;;;;;;;16.10;99.90;;;;;;5063940;28;19966;-73
2022/12/01 12:38:27;;;;;;;;;;;16.00;99.90;;;;;;5070125;28;19956;-69
2022/12/01 12:40:54;;;;;;;;;;;16.00;99.90;;;;;;5073082;28;19939;-73
2022/12/01 12:43:33;;;;;;;;;;;16.00;99.90;;;;;;5072920;28;20293;-71
2022/12/01 12:46:16;;;;;;;;;;;15.90;99.90;;;;;;5073960;28;19973;-73
2022/12/01 12:48:57;;;;;;;;;;;15.90;99.90;;;;;;5069778;28;20420;-72
2022/12/01 12:51:36;;;;;;;;;;;15.90;99.90;;;;;;5052359;28;19916;-72
2022/12/01 12:54:11;;;;;;;;;;;15.90;99.90;;;;;;5064052;28;20902;-74
2022/12/01 12:56:40;;;;;;;;;;;16.00;99.90;;;;;;5065379;28;19926;-71
2022/12/01 12:59:08;;;;;;;;;;;16.10;99.90;;;;;;5065279;28;19928;-73
2022/12/01 13:01:40;;;;;;;;;;;16.10;99.90;;;;;;5072139;28;19912;-73
2022/12/01 13:04:18;;;;;;;;;;;16.20;99.90;;;;;;5055757;28;20371;-73
2022/12/01 13:07:11;;;;;;;;;;;16.20;99.90;;;;;;5073075;28;19920;-73
2022/12/01 13:09:39;;;;;;;;;;;16.20;99.90;;;;;;5061787;28;19920;-73
2022/12/01 13:12:15;;;;;;;;;;;16.20;99.90;;;;;;5056045;28;19939;-74
2022/12/01 13:14:56;;;;;;;;;;;16.30;99.90;;;;;;5072545;28;20318;-72
2022/12/01 13:17:27;;;;;;;;;;;16.30;99.90;;;;;;5068652;28;19909;-73
2022/12/01 13:19:54;;;;;;;;;;;16.30;99.90;;;;;;5067757;28;19913;-73
2022/12/01 13:22:24;;;;;;;;;;;16.30;99.90;;;;;;5071111;28;20903;-72
2022/12/01 13:24:50;;;;;;;;;;;16.30;99.90;;;;;;5071806;28;19908;-72
2022/12/01 13:27:19;;;;;;;;;;;16.30;99.90;;;;;;5071558;28;19991;-71
2022/12/01 13:29:52;;;;;;;;;;;16.40;99.90;;;;;;5064887;28;20370;-72
2022/12/01 13:32:27;;;;;;;;;;;16.30;99.90;;;;;;5055581;28;19912;-74
2022/12/01 13:34:54;;;;;;;;;;;16.30;99.90;;;;;;5063299;28;19909;-72
2022/12/01 13:37:31;;;;;;;;;;;16.30;99.90;;;;;;5052780;28;19916;-71
2022/12/01 13:40:16;;;;;;;;;;;16.30;99.90;;;;;;5073126;28;19923;-75
2022/12/01 13:42:43;;;;;;;;;;;16.30;99.90;;;;;;5072744;28;20359;-73
2022/12/01 13:45:16;;;;;;;;;;;16.30;99.90;;;;;;5068152;28;19921;-72
2022/12/01 13:47:55;;;;;;;;;;;16.30;99.90;;;;;;5062327;28;20425;-71
2022/12/01 13:50:46;;;;;;;;;;;16.30;99.90;;;;;;5058070;28;19918;-72
2022/12/01 13:53:19;;;;;;;;;;;16.40;99.90;;;;;;5053661;28;20360;-74
2022/12/01 13:55:52;;;;;;;;;;;16.40;99.90;;;;;;5068944;28;20394;-73
2022/12/01 13:58:23;;;;;;;;;;;16.40;99.90;;;;;;5067304;28;19978;-73
2022/12/01 14:00:50;;;;;;;;;;;16.50;99.90;;;;;;5073171;28;19917;-74
2022/12/01 14:03:19;;;;;;;;;;;16.50;99.90;;;;;;5065339;28;20379;-74
2022/12/01 14:05:52;;;;;;;;;;;16.60;99.90;;;;;;5065205;28;19934;-73
2022/12/01 14:08:21;;;;;;;;;;;16.60;99.90;;;;;;5070965;28;19916;-73
2022/12/01 14:10:57;;;;;;;;;;;16.60;99.90;;;;;;5071741;28;19919;-70
2022/12/01 14:13:24;;;;;;;;;;;16.60;99.90;;;;;;5069852;28;19916;-72
2022/12/01 14:15:58;;;;;;;;;;;16.60;99.90;;;;;;5071801;28;19960;-74
2022/12/01 14:18:39;;;;;;;;;;;16.60;99.90;;;;;;5071619;28;19966;-75
2022/12/01 14:21:07;;;;;;;;;;;16.60;99.90;;;;;;5071490;28;19956;-73
2022/12/01 14:23:56;;;;;;;;;;;16.60;99.90;;;;;;5070640;28;20390;-73
2022/12/01 14:26:24;;;;;;;;;;;16.50;99.90;;;;;;5059328;28;19913;-71
2022/12/01 14:28:59;;;;;;;;;;;16.50;99.90;;;;;;5071012;28;19912;-73
2022/12/01 14:31:32;;;;;;;;;;;16.40;99.90;;;;;;5066139;28;19913;-73
2022/12/01 14:33:59;;;;;;;;;;;16.30;99.90;;;;;;5055379;28;19995;-74
2022/12/01 14:36:37;;;;;;;;;;;16.20;99.90;;;;;;5067136;28;19912;-73
2022/12/01 14:39:22;;;;;;;;;;;16.10;99.90;;;;;;5069956;28;20010;-74